sensor_id;sensor_type;location;lat;lon;timestamp;P1;durP1;ratioP1;P2;durP2;ratioP2
59830;SDS011;45711;50.108;13.712;2023-03-23T00:01:17;12.93;;;5.35;;
59830;SDS011;45711;50.108;13.712;2023-03-23T00:03:46;11.45;;;5.43;;
59830;SDS011;45711;50.108;13.712;2023-03-23T00:06:14;11.40;;;4.85;;
59830;SDS011;45711;50.108;13.712;2023-03-23T00:08:44;12.25;;;6.00;;
59830;SDS011;45711;50.108;13.712;2023-03-23T00:11:17;14.00;;;6.32;;
59830;SDS011;45711;50.108;13.712;2023-03-23T00:13:50;13.13;;;6.32;;
59830;SDS011;45711;50.108;13.712;2023-03-23T00:16:18;22.92;;;7.93;;
59830;SDS011;45711;50.108;13.712;2023-03-23T00:18:48;16.42;;;7.90;;
59830;SDS011;45711;50.108;13.712;2023-03-23T00:21:19;14.23;;;7.63;;
59830;SDS011;45711;50.108;13.712;2023-03-23T00:24:01;18.67;;;7.60;;
59830;SDS011;45711;50.108;13.712;2023-03-23T00:28:59;15.73;;;8.02;;
59830;SDS011;45711;50.108;13.712;2023-03-23T00:31:28;15.95;;;5.82;;
59830;SDS011;45711;50.108;13.712;2023-03-23T00:34:09;27.63;;;7.55;;
59830;SDS011;45711;50.108;13.712;2023-03-23T00:36:43;20.20;;;6.38;;
59830;SDS011;45711;50.108;13.712;2023-03-23T00:39:16;17.73;;;6.32;;
59830;SDS011;45711;50.108;13.712;2023-03-23T00:41:46;15.65;;;6.40;;
59830;SDS011;45711;50.108;13.712;2023-03-23T00:44:20;12.25;;;5.85;;
59830;SDS011;45711;50.108;13.712;2023-03-23T00:46:49;12.80;;;6.50;;
59830;SDS011;45711;50.108;13.712;2023-03-23T00:49:19;12.73;;;5.28;;
59830;SDS011;45711;50.108;13.712;2023-03-23T00:51:50;11.27;;;5.60;;
59830;SDS011;45711;50.108;13.712;2023-03-23T00:54:16;10.35;;;5.00;;
59830;SDS011;45711;50.108;13.712;2023-03-23T00:56:42;11.23;;;5.68;;
59830;SDS011;45711;50.108;13.712;2023-03-23T00:59:09;10.77;;;5.13;;
59830;SDS011;45711;50.108;13.712;2023-03-23T01:01:37;12.43;;;5.13;;
59830;SDS011;45711;50.108;13.712;2023-03-23T01:04:05;12.20;;;4.72;;
59830;SDS011;45711;50.108;13.712;2023-03-23T01:06:33;10.88;;;5.15;;
59830;SDS011;45711;50.108;13.712;2023-03-23T01:09:12;8.82;;;5.28;;
59830;SDS011;45711;50.108;13.712;2023-03-23T01:11:42;8.75;;;4.97;;
59830;SDS011;45711;50.108;13.712;2023-03-23T01:14:11;8.98;;;4.68;;
59830;SDS011;45711;50.108;13.712;2023-03-23T01:16:43;11.45;;;4.78;;
59830;SDS011;45711;50.108;13.712;2023-03-23T01:19:11;11.07;;;4.10;;
59830;SDS011;45711;50.108;13.712;2023-03-23T01:21:42;6.15;;;3.90;;
59830;SDS011;45711;50.108;13.712;2023-03-23T01:24:11;13.30;;;5.50;;
59830;SDS011;45711;50.108;13.712;2023-03-23T01:26:39;11.98;;;4.75;;
59830;SDS011;45711;50.108;13.712;2023-03-23T01:29:11;10.90;;;4.70;;
59830;SDS011;45711;50.108;13.712;2023-03-23T01:31:41;17.55;;;4.47;;
59830;SDS011;45711;50.108;13.712;2023-03-23T01:34:14;10.82;;;4.43;;
59830;SDS011;45711;50.108;13.712;2023-03-23T01:36:47;8.10;;;3.90;;
59830;SDS011;45711;50.108;13.712;2023-03-23T01:39:44;10.40;;;4.03;;
59830;SDS011;45711;50.108;13.712;2023-03-23T01:42:13;8.57;;;4.22;;
59830;SDS011;45711;50.108;13.712;2023-03-23T01:47:56;6.75;;;4.25;;
59830;SDS011;45711;50.108;13.712;2023-03-23T01:50:38;7.32;;;4.35;;
59830;SDS011;45711;50.108;13.712;2023-03-23T01:53:12;9.25;;;4.20;;
59830;SDS011;45711;50.108;13.712;2023-03-23T01:55:48;8.93;;;4.18;;
59830;SDS011;45711;50.108;13.712;2023-03-23T01:58:26;11.00;;;4.10;;
59830;SDS011;45711;50.108;13.712;2023-03-23T02:00:57;7.93;;;4.60;;
59830;SDS011;45711;50.108;13.712;2023-03-23T02:03:33;8.10;;;4.05;;
59830;SDS011;45711;50.108;13.712;2023-03-23T02:06:03;8.02;;;4.35;;
59830;SDS011;45711;50.108;13.712;2023-03-23T02:08:38;10.90;;;4.38;;
59830;SDS011;45711;50.108;13.712;2023-03-23T02:11:12;8.05;;;4.20;;
59830;SDS011;45711;50.108;13.712;2023-03-23T02:13:46;14.32;;;3.90;;
59830;SDS011;45711;50.108;13.712;2023-03-23T02:16:14;8.13;;;3.95;;
59830;SDS011;45711;50.108;13.712;2023-03-23T02:18:54;9.27;;;3.83;;
59830;SDS011;45711;50.108;13.712;2023-03-23T02:21:55;8.10;;;4.32;;
59830;SDS011;45711;50.108;13.712;2023-03-23T02:31:04;7.85;;;3.30;;
59830;SDS011;45711;50.108;13.712;2023-03-23T02:33:49;7.03;;;3.70;;
59830;SDS011;45711;50.108;13.712;2023-03-23T02:38:55;8.18;;;3.97;;
59830;SDS011;45711;50.108;13.712;2023-03-23T02:41:27;6.07;;;3.00;;
59830;SDS011;45711;50.108;13.712;2023-03-23T02:44:01;6.32;;;3.50;;
59830;SDS011;45711;50.108;13.712;2023-03-23T02:46:32;5.95;;;3.50;;
59830;SDS011;45711;50.108;13.712;2023-03-23T02:49:14;5.72;;;3.08;;
59830;SDS011;45711;50.108;13.712;2023-03-23T02:51:44;7.25;;;4.40;;
59830;SDS011;45711;50.108;13.712;2023-03-23T02:54:37;8.38;;;4.40;;
59830;SDS011;45711;50.108;13.712;2023-03-23T02:57:13;19.73;;;11.00;;
59830;SDS011;45711;50.108;13.712;2023-03-23T02:59:47;30.23;;;17.98;;
59830;SDS011;45711;50.108;13.712;2023-03-23T03:02:21;18.23;;;10.50;;
59830;SDS011;45711;50.108;13.712;2023-03-23T03:05:00;16.63;;;7.85;;
59830;SDS011;45711;50.108;13.712;2023-03-23T03:07:45;10.20;;;5.53;;
59830;SDS011;45711;50.108;13.712;2023-03-23T03:10:37;8.68;;;4.70;;
59830;SDS011;45711;50.108;13.712;2023-03-23T03:13:45;9.90;;;4.40;;
59830;SDS011;45711;50.108;13.712;2023-03-23T03:16:22;12.30;;;4.50;;
59830;SDS011;45711;50.108;13.712;2023-03-23T03:20:03;6.70;;;3.42;;
59830;SDS011;45711;50.108;13.712;2023-03-23T03:21:54;10.60;;;4.30;;
59830;SDS011;45711;50.108;13.712;2023-03-23T03:24:25;13.32;;;6.88;;
59830;SDS011;45711;50.108;13.712;2023-03-23T03:26:56;9.90;;;5.10;;
59830;SDS011;45711;50.108;13.712;2023-03-23T03:29:28;8.75;;;4.22;;
59830;SDS011;45711;50.108;13.712;2023-03-23T03:32:01;8.00;;;4.10;;
59830;SDS011;45711;50.108;13.712;2023-03-23T03:34:34;7.32;;;3.70;;
59830;SDS011;45711;50.108;13.712;2023-03-23T03:37:10;9.45;;;4.00;;
59830;SDS011;45711;50.108;13.712;2023-03-23T03:39:42;9.95;;;4.55;;
59830;SDS011;45711;50.108;13.712;2023-03-23T03:42:09;10.27;;;4.63;;
59830;SDS011;45711;50.108;13.712;2023-03-23T03:44:35;10.77;;;4.57;;
59830;SDS011;45711;50.108;13.712;2023-03-23T03:47:03;8.65;;;4.57;;
59830;SDS011;45711;50.108;13.712;2023-03-23T03:49:40;6.43;;;3.83;;
59830;SDS011;45711;50.108;13.712;2023-03-23T03:52:26;8.02;;;4.15;;
59830;SDS011;45711;50.108;13.712;2023-03-23T03:54:54;8.85;;;4.82;;
59830;SDS011;45711;50.108;13.712;2023-03-23T03:57:21;8.88;;;4.03;;
59830;SDS011;45711;50.108;13.712;2023-03-23T03:59:52;8.65;;;4.22;;
59830;SDS011;45711;50.108;13.712;2023-03-23T04:02:35;8.02;;;4.30;;
59830;SDS011;45711;50.108;13.712;2023-03-23T04:05:20;7.00;;;4.05;;
59830;SDS011;45711;50.108;13.712;2023-03-23T04:07:50;8.30;;;4.38;;
59830;SDS011;45711;50.108;13.712;2023-03-23T04:10:21;8.43;;;4.13;;
59830;SDS011;45711;50.108;13.712;2023-03-23T04:12:57;6.88;;;3.83;;
59830;SDS011;45711;50.108;13.712;2023-03-23T04:15:27;5.68;;;3.55;;
59830;SDS011;45711;50.108;13.712;2023-03-23T04:18:02;5.95;;;3.45;;
59830;SDS011;45711;50.108;13.712;2023-03-23T04:20:54;7.88;;;4.22;;
59830;SDS011;45711;50.108;13.712;2023-03-23T04:29:27;4.97;;;3.30;;
59830;SDS011;45711;50.108;13.712;2023-03-23T04:32:06;5.20;;;3.13;;
59830;SDS011;45711;50.108;13.712;2023-03-23T04:34:36;7.72;;;3.78;;
59830;SDS011;45711;50.108;13.712;2023-03-23T04:37:17;7.75;;;3.50;;
59830;SDS011;45711;50.108;13.712;2023-03-23T04:40:09;6.22;;;3.40;;
59830;SDS011;45711;50.108;13.712;2023-03-23T04:42:49;5.78;;;3.63;;
59830;SDS011;45711;50.108;13.712;2023-03-23T04:45:36;5.60;;;3.45;;
59830;SDS011;45711;50.108;13.712;2023-03-23T04:48:06;7.93;;;3.42;;
59830;SDS011;45711;50.108;13.712;2023-03-23T04:50:47;6.40;;;3.60;;
59830;SDS011;45711;50.108;13.712;2023-03-23T04:53:17;6.35;;;3.17;;
59830;SDS011;45711;50.108;13.712;2023-03-23T04:55:54;16.55;;;3.83;;
59830;SDS011;45711;50.108;13.712;2023-03-23T05:01:30;10.68;;;3.83;;
59830;SDS011;45711;50.108;13.712;2023-03-23T05:04:08;5.53;;;3.38;;
59830;SDS011;45711;50.108;13.712;2023-03-23T05:06:49;5.13;;;3.38;;
59830;SDS011;45711;50.108;13.712;2023-03-23T05:09:18;6.00;;;3.53;;
59830;SDS011;45711;50.108;13.712;2023-03-23T05:11:48;6.15;;;3.47;;
59830;SDS011;45711;50.108;13.712;2023-03-23T05:14:23;4.85;;;3.22;;
59830;SDS011;45711;50.108;13.712;2023-03-23T05:16:57;8.52;;;3.88;;
59830;SDS011;45711;50.108;13.712;2023-03-23T05:22:54;10.15;;;3.88;;
59830;SDS011;45711;50.108;13.712;2023-03-23T05:25:28;11.65;;;3.50;;
59830;SDS011;45711;50.108;13.712;2023-03-23T05:27:53;6.13;;;3.60;;
59830;SDS011;45711;50.108;13.712;2023-03-23T05:30:24;6.15;;;3.40;;
59830;SDS011;45711;50.108;13.712;2023-03-23T05:32:52;7.90;;;3.58;;
59830;SDS011;45711;50.108;13.712;2023-03-23T05:35:21;9.70;;;3.63;;
59830;SDS011;45711;50.108;13.712;2023-03-23T05:37:56;7.13;;;3.10;;
59830;SDS011;45711;50.108;13.712;2023-03-23T05:40:29;9.35;;;3.60;;
59830;SDS011;45711;50.108;13.712;2023-03-23T05:42:58;6.32;;;3.42;;
59830;SDS011;45711;50.108;13.712;2023-03-23T05:45:28;7.18;;;3.30;;
59830;SDS011;45711;50.108;13.712;2023-03-23T05:47:53;7.63;;;3.40;;
59830;SDS011;45711;50.108;13.712;2023-03-23T05:50:27;12.43;;;3.28;;
59830;SDS011;45711;50.108;13.712;2023-03-23T05:52:56;7.20;;;3.03;;
59830;SDS011;45711;50.108;13.712;2023-03-23T05:55:41;7.72;;;3.25;;
59830;SDS011;45711;50.108;13.712;2023-03-23T05:58:28;6.83;;;3.10;;
59830;SDS011;45711;50.108;13.712;2023-03-23T06:04:09;6.18;;;2.90;;
59830;SDS011;45711;50.108;13.712;2023-03-23T06:06:38;6.05;;;2.55;;
59830;SDS011;45711;50.108;13.712;2023-03-23T06:09:06;5.95;;;2.80;;
59830;SDS011;45711;50.108;13.712;2023-03-23T06:11:34;5.07;;;2.70;;
59830;SDS011;45711;50.108;13.712;2023-03-23T06:14:03;4.15;;;2.55;;
59830;SDS011;45711;50.108;13.712;2023-03-23T06:16:29;5.65;;;2.88;;
59830;SDS011;45711;50.108;13.712;2023-03-23T06:19:01;7.70;;;2.80;;
59830;SDS011;45711;50.108;13.712;2023-03-23T06:24:07;11.40;;;2.97;;
59830;SDS011;45711;50.108;13.712;2023-03-23T06:26:53;5.30;;;2.33;;
59830;SDS011;45711;50.108;13.712;2023-03-23T06:29:19;9.32;;;2.95;;
59830;SDS011;45711;50.108;13.712;2023-03-23T06:31:52;4.72;;;2.63;;
59830;SDS011;45711;50.108;13.712;2023-03-23T06:34:21;11.18;;;2.78;;
59830;SDS011;45711;50.108;13.712;2023-03-23T06:37:02;12.82;;;3.20;;
59830;SDS011;45711;50.108;13.712;2023-03-23T06:39:28;10.27;;;3.30;;
59830;SDS011;45711;50.108;13.712;2023-03-23T06:42:10;5.97;;;3.35;;
59830;SDS011;45711;50.108;13.712;2023-03-23T06:44:43;6.53;;;3.55;;
59830;SDS011;45711;50.108;13.712;2023-03-23T06:47:44;7.18;;;3.03;;
59830;SDS011;45711;50.108;13.712;2023-03-23T06:50:10;7.43;;;3.20;;
59830;SDS011;45711;50.108;13.712;2023-03-23T06:55:38;10.00;;;3.75;;
59830;SDS011;45711;50.108;13.712;2023-03-23T06:58:28;7.63;;;3.63;;
59830;SDS011;45711;50.108;13.712;2023-03-23T07:00:55;8.77;;;4.05;;
59830;SDS011;45711;50.108;13.712;2023-03-23T07:03:34;6.50;;;3.60;;
59830;SDS011;45711;50.108;13.712;2023-03-23T07:06:17;4.82;;;3.03;;
59830;SDS011;45711;50.108;13.712;2023-03-23T07:09:28;8.18;;;3.00;;
59830;SDS011;45711;50.108;13.712;2023-03-23T07:12:15;15.77;;;4.18;;
59830;SDS011;45711;50.108;13.712;2023-03-23T07:14:50;7.82;;;3.30;;
59830;SDS011;45711;50.108;13.712;2023-03-23T07:23:04;5.30;;;2.60;;
59830;SDS011;45711;50.108;13.712;2023-03-23T07:26:22;7.70;;;2.78;;
59830;SDS011;45711;50.108;13.712;2023-03-23T07:29:17;4.88;;;2.53;;
59830;SDS011;45711;50.108;13.712;2023-03-23T07:31:50;6.47;;;2.70;;
59830;SDS011;45711;50.108;13.712;2023-03-23T07:34:22;4.30;;;2.60;;
59830;SDS011;45711;50.108;13.712;2023-03-23T07:36:58;6.47;;;2.90;;
59830;SDS011;45711;50.108;13.712;2023-03-23T07:39:28;8.57;;;3.53;;
59830;SDS011;45711;50.108;13.712;2023-03-23T07:41:58;8.07;;;3.08;;
59830;SDS011;45711;50.108;13.712;2023-03-23T07:44:28;6.72;;;2.47;;
59830;SDS011;45711;50.108;13.712;2023-03-23T07:46:59;8.45;;;2.92;;
59830;SDS011;45711;50.108;13.712;2023-03-23T07:49:35;6.15;;;3.53;;
59830;SDS011;45711;50.108;13.712;2023-03-23T07:52:13;7.05;;;3.03;;
59830;SDS011;45711;50.108;13.712;2023-03-23T07:55:23;4.47;;;2.30;;
59830;SDS011;45711;50.108;13.712;2023-03-23T07:57:55;7.25;;;2.83;;
59830;SDS011;45711;50.108;13.712;2023-03-23T08:00:23;7.00;;;2.40;;
59830;SDS011;45711;50.108;13.712;2023-03-23T08:03:09;6.60;;;2.17;;
59830;SDS011;45711;50.108;13.712;2023-03-23T08:05:35;4.10;;;2.30;;
59830;SDS011;45711;50.108;13.712;2023-03-23T08:08:04;5.05;;;2.42;;
59830;SDS011;45711;50.108;13.712;2023-03-23T08:10:32;7.80;;;2.75;;
59830;SDS011;45711;50.108;13.712;2023-03-23T08:13:04;10.40;;;2.45;;
59830;SDS011;45711;50.108;13.712;2023-03-23T08:15:37;5.53;;;2.53;;
59830;SDS011;45711;50.108;13.712;2023-03-23T08:18:09;5.38;;;2.40;;
59830;SDS011;45711;50.108;13.712;2023-03-23T08:20:36;6.25;;;2.72;;
59830;SDS011;45711;50.108;13.712;2023-03-23T08:23:05;7.15;;;2.58;;
59830;SDS011;45711;50.108;13.712;2023-03-23T08:25:33;5.57;;;2.45;;
59830;SDS011;45711;50.108;13.712;2023-03-23T08:28:11;4.97;;;2.10;;
59830;SDS011;45711;50.108;13.712;2023-03-23T08:30:42;4.70;;;2.20;;
59830;SDS011;45711;50.108;13.712;2023-03-23T08:33:14;6.47;;;2.70;;
59830;SDS011;45711;50.108;13.712;2023-03-23T08:35:45;3.88;;;2.40;;
59830;SDS011;45711;50.108;13.712;2023-03-23T08:38:52;5.15;;;2.13;;
59830;SDS011;45711;50.108;13.712;2023-03-23T08:41:46;4.90;;;2.20;;
59830;SDS011;45711;50.108;13.712;2023-03-23T08:44:58;3.55;;;2.30;;
59830;SDS011;45711;50.108;13.712;2023-03-23T08:47:36;5.57;;;2.30;;
59830;SDS011;45711;50.108;13.712;2023-03-23T08:50:37;10.23;;;2.28;;
59830;SDS011;45711;50.108;13.712;2023-03-23T08:53:03;3.33;;;2.00;;
59830;SDS011;45711;50.108;13.712;2023-03-23T08:56:05;3.30;;;1.90;;
59830;SDS011;45711;50.108;13.712;2023-03-23T08:58:55;10.25;;;2.47;;
59830;SDS011;45711;50.108;13.712;2023-03-23T09:01:43;5.70;;;2.10;;
59830;SDS011;45711;50.108;13.712;2023-03-23T09:04:31;2.75;;;1.75;;
59830;SDS011;45711;50.108;13.712;2023-03-23T09:07:12;25.20;;;3.55;;
59830;SDS011;45711;50.108;13.712;2023-03-23T09:10:22;3.95;;;1.80;;
59830;SDS011;45711;50.108;13.712;2023-03-23T09:13:05;4.38;;;1.73;;
59830;SDS011;45711;50.108;13.712;2023-03-23T09:16:00;5.97;;;1.60;;
59830;SDS011;45711;50.108;13.712;2023-03-23T09:18:30;5.85;;;1.92;;
59830;SDS011;45711;50.108;13.712;2023-03-23T09:21:03;6.50;;;1.85;;
59830;SDS011;45711;50.108;13.712;2023-03-23T09:23:31;5.30;;;1.70;;
59830;SDS011;45711;50.108;13.712;2023-03-23T09:25:59;8.15;;;2.20;;
59830;SDS011;45711;50.108;13.712;2023-03-23T09:28:25;8.15;;;1.67;;
59830;SDS011;45711;50.108;13.712;2023-03-23T09:30:53;6.93;;;2.10;;
59830;SDS011;45711;50.108;13.712;2023-03-23T09:33:22;10.70;;;1.77;;
59830;SDS011;45711;50.108;13.712;2023-03-23T09:35:56;9.98;;;1.88;;
59830;SDS011;45711;50.108;13.712;2023-03-23T09:38:22;8.00;;;1.92;;
59830;SDS011;45711;50.108;13.712;2023-03-23T09:40:52;3.10;;;1.77;;
59830;SDS011;45711;50.108;13.712;2023-03-23T09:43:33;3.60;;;1.70;;
59830;SDS011;45711;50.108;13.712;2023-03-23T09:46:18;3.92;;;1.63;;
59830;SDS011;45711;50.108;13.712;2023-03-23T09:48:57;3.40;;;1.77;;
59830;SDS011;45711;50.108;13.712;2023-03-23T09:51:34;2.27;;;1.40;;
59830;SDS011;45711;50.108;13.712;2023-03-23T09:54:10;5.60;;;1.90;;
59830;SDS011;45711;50.108;13.712;2023-03-23T09:56:40;3.05;;;1.65;;
59830;SDS011;45711;50.108;13.712;2023-03-23T09:59:09;8.38;;;1.67;;
59830;SDS011;45711;50.108;13.712;2023-03-23T10:01:40;5.05;;;1.67;;
59830;SDS011;45711;50.108;13.712;2023-03-23T10:04:10;9.68;;;2.00;;
59830;SDS011;45711;50.108;13.712;2023-03-23T10:06:45;13.02;;;2.22;;
59830;SDS011;45711;50.108;13.712;2023-03-23T10:09:14;4.50;;;1.40;;
59830;SDS011;45711;50.108;13.712;2023-03-23T10:11:46;5.30;;;1.52;;
59830;SDS011;45711;50.108;13.712;2023-03-23T10:14:23;7.45;;;1.40;;
59830;SDS011;45711;50.108;13.712;2023-03-23T10:19:57;5.03;;;1.33;;
59830;SDS011;45711;50.108;13.712;2023-03-23T10:26:04;4.22;;;0.95;;
59830;SDS011;45711;50.108;13.712;2023-03-23T10:29:12;6.00;;;1.13;;
59830;SDS011;45711;50.108;13.712;2023-03-23T10:31:45;4.50;;;1.30;;
59830;SDS011;45711;50.108;13.712;2023-03-23T10:34:48;4.85;;;1.10;;
59830;SDS011;45711;50.108;13.712;2023-03-23T10:37:22;14.73;;;1.30;;
59830;SDS011;45711;50.108;13.712;2023-03-23T10:39:53;6.90;;;1.65;;
59830;SDS011;45711;50.108;13.712;2023-03-23T10:42:37;4.68;;;1.25;;
59830;SDS011;45711;50.108;13.712;2023-03-23T10:45:11;2.03;;;1.10;;
59830;SDS011;45711;50.108;13.712;2023-03-23T10:47:49;3.45;;;1.20;;
59830;SDS011;45711;50.108;13.712;2023-03-23T10:50:24;6.32;;;1.35;;
59830;SDS011;45711;50.108;13.712;2023-03-23T10:52:57;7.65;;;1.45;;
59830;SDS011;45711;50.108;13.712;2023-03-23T10:55:35;8.90;;;1.20;;
59830;SDS011;45711;50.108;13.712;2023-03-23T10:58:08;12.88;;;1.38;;
59830;SDS011;45711;50.108;13.712;2023-03-23T11:00:43;3.25;;;1.23;;
59830;SDS011;45711;50.108;13.712;2023-03-23T11:03:34;3.53;;;1.20;;
59830;SDS011;45711;50.108;13.712;2023-03-23T11:06:22;3.45;;;1.13;;
59830;SDS011;45711;50.108;13.712;2023-03-23T11:09:13;5.88;;;1.23;;
59830;SDS011;45711;50.108;13.712;2023-03-23T11:11:43;4.45;;;1.13;;
59830;SDS011;45711;50.108;13.712;2023-03-23T11:14:16;2.45;;;1.00;;
59830;SDS011;45711;50.108;13.712;2023-03-23T11:16:45;6.50;;;1.13;;
59830;SDS011;45711;50.108;13.712;2023-03-23T11:19:28;11.07;;;1.30;;
59830;SDS011;45711;50.108;13.712;2023-03-23T11:22:06;5.32;;;1.48;;
59830;SDS011;45711;50.108;13.712;2023-03-23T11:24:41;4.15;;;1.33;;
59830;SDS011;45711;50.108;13.712;2023-03-23T11:27:15;6.82;;;1.10;;
59830;SDS011;45711;50.108;13.712;2023-03-23T11:30:22;7.28;;;1.20;;
59830;SDS011;45711;50.108;13.712;2023-03-23T11:32:59;14.55;;;1.55;;
59830;SDS011;45711;50.108;13.712;2023-03-23T11:35:33;6.43;;;1.42;;
59830;SDS011;45711;50.108;13.712;2023-03-23T11:38:12;4.30;;;1.58;;
59830;SDS011;45711;50.108;13.712;2023-03-23T11:40:56;8.95;;;1.17;;
59830;SDS011;45711;50.108;13.712;2023-03-23T11:43:26;4.65;;;1.17;;
59830;SDS011;45711;50.108;13.712;2023-03-23T11:46:34;3.33;;;1.70;;
59830;SDS011;45711;50.108;13.712;2023-03-23T11:49:18;9.98;;;1.48;;
59830;SDS011;45711;50.108;13.712;2023-03-23T11:51:51;4.40;;;1.50;;
59830;SDS011;45711;50.108;13.712;2023-03-23T11:54:25;8.85;;;1.30;;
59830;SDS011;45711;50.108;13.712;2023-03-23T11:56:58;2.65;;;1.48;;
59830;SDS011;45711;50.108;13.712;2023-03-23T11:59:46;7.55;;;1.52;;
59830;SDS011;45711;50.108;13.712;2023-03-23T12:02:30;9.35;;;1.88;;
59830;SDS011;45711;50.108;13.712;2023-03-23T12:05:22;2.47;;;1.42;;
59830;SDS011;45711;50.108;13.712;2023-03-23T12:08:02;5.13;;;1.52;;
59830;SDS011;45711;50.108;13.712;2023-03-23T12:10:40;3.33;;;1.60;;
59830;SDS011;45711;50.108;13.712;2023-03-23T12:13:24;4.40;;;1.35;;
59830;SDS011;45711;50.108;13.712;2023-03-23T12:16:18;1.45;;;1.25;;
59830;SDS011;45711;50.108;13.712;2023-03-23T12:18:56;2.75;;;1.55;;
59830;SDS011;45711;50.108;13.712;2023-03-23T12:21:29;5.68;;;1.63;;
59830;SDS011;45711;50.108;13.712;2023-03-23T12:24:02;4.87;;;1.67;;
59830;SDS011;45711;50.108;13.712;2023-03-23T12:26:43;8.75;;;1.80;;
59830;SDS011;45711;50.108;13.712;2023-03-23T12:29:25;6.63;;;1.50;;
59830;SDS011;45711;50.108;13.712;2023-03-23T12:32:13;2.85;;;1.45;;
59830;SDS011;45711;50.108;13.712;2023-03-23T12:35:25;6.28;;;1.58;;
59830;SDS011;45711;50.108;13.712;2023-03-23T12:38:16;13.73;;;1.70;;
59830;SDS011;45711;50.108;13.712;2023-03-23T12:41:22;4.70;;;1.55;;
59830;SDS011;45711;50.108;13.712;2023-03-23T12:44:01;2.70;;;1.50;;
59830;SDS011;45711;50.108;13.712;2023-03-23T12:46:52;5.03;;;1.50;;
59830;SDS011;45711;50.108;13.712;2023-03-23T12:50:07;7.82;;;1.55;;
59830;SDS011;45711;50.108;13.712;2023-03-23T12:56:16;2.60;;;1.58;;
59830;SDS011;45711;50.108;13.712;2023-03-23T12:59:25;10.68;;;1.92;;
59830;SDS011;45711;50.108;13.712;2023-03-23T13:02:14;4.22;;;1.77;;
59830;SDS011;45711;50.108;13.712;2023-03-23T13:05:25;5.03;;;1.80;;
59830;SDS011;45711;50.108;13.712;2023-03-23T13:08:21;4.70;;;1.58;;
59830;SDS011;45711;50.108;13.712;2023-03-23T13:17:22;9.75;;;1.83;;
59830;SDS011;45711;50.108;13.712;2023-03-23T13:23:28;158.93;;;117.20;;
59830;SDS011;45711;50.108;13.712;2023-03-23T13:26:00;130.57;;;101.03;;
59830;SDS011;45711;50.108;13.712;2023-03-23T13:28:34;78.78;;;60.13;;
59830;SDS011;45711;50.108;13.712;2023-03-23T13:31:15;94.55;;;72.63;;
59830;SDS011;45711;50.108;13.712;2023-03-23T13:33:53;84.43;;;66.45;;
59830;SDS011;45711;50.108;13.712;2023-03-23T13:36:27;92.80;;;60.03;;
59830;SDS011;45711;50.108;13.712;2023-03-23T13:38:54;81.07;;;55.72;;
59830;SDS011;45711;50.108;13.712;2023-03-23T13:41:26;47.10;;;35.58;;
59830;SDS011;45711;50.108;13.712;2023-03-23T13:44:04;40.10;;;31.15;;
59830;SDS011;45711;50.108;13.712;2023-03-23T13:46:41;43.20;;;30.23;;
59830;SDS011;45711;50.108;13.712;2023-03-23T13:49:17;39.10;;;23.42;;
59830;SDS011;45711;50.108;13.712;2023-03-23T13:51:59;28.45;;;19.65;;
59830;SDS011;45711;50.108;13.712;2023-03-23T13:54:38;20.92;;;14.63;;
59830;SDS011;45711;50.108;13.712;2023-03-23T13:57:23;21.15;;;14.68;;
59830;SDS011;45711;50.108;13.712;2023-03-23T13:59:58;17.48;;;11.52;;
59830;SDS011;45711;50.108;13.712;2023-03-23T14:02:35;26.17;;;12.88;;
59830;SDS011;45711;50.108;13.712;2023-03-23T14:07:56;14.15;;;6.85;;
59830;SDS011;45711;50.108;13.712;2023-03-23T14:10:33;10.73;;;5.20;;
59830;SDS011;45711;50.108;13.712;2023-03-23T14:13:01;19.02;;;5.70;;
59830;SDS011;45711;50.108;13.712;2023-03-23T14:15:40;8.27;;;3.95;;
59830;SDS011;45711;50.108;13.712;2023-03-23T14:18:11;6.95;;;4.65;;
59830;SDS011;45711;50.108;13.712;2023-03-23T14:20:50;7.82;;;4.13;;
59830;SDS011;45711;50.108;13.712;2023-03-23T14:23:20;8.88;;;3.40;;
59830;SDS011;45711;50.108;13.712;2023-03-23T14:25:56;5.35;;;3.25;;
59830;SDS011;45711;50.108;13.712;2023-03-23T14:28:43;8.05;;;3.40;;
59830;SDS011;45711;50.108;13.712;2023-03-23T14:31:14;12.65;;;4.35;;
59830;SDS011;45711;50.108;13.712;2023-03-23T14:33:44;6.85;;;3.28;;
59830;SDS011;45711;50.108;13.712;2023-03-23T14:36:14;12.05;;;3.75;;
59830;SDS011;45711;50.108;13.712;2023-03-23T14:38:44;6.95;;;2.90;;
59830;SDS011;45711;50.108;13.712;2023-03-23T14:41:19;6.70;;;3.40;;
59830;SDS011;45711;50.108;13.712;2023-03-23T14:43:59;6.43;;;3.35;;
59830;SDS011;45711;50.108;13.712;2023-03-23T14:48:36;12.38;;;3.10;;
59830;SDS011;45711;50.108;13.712;2023-03-23T14:49:43;7.82;;;3.33;;
59830;SDS011;45711;50.108;13.712;2023-03-23T14:52:21;8.32;;;2.47;;
59830;SDS011;45711;50.108;13.712;2023-03-23T14:57:40;5.22;;;2.35;;
59830;SDS011;45711;50.108;13.712;2023-03-23T15:00:33;5.85;;;1.80;;
59830;SDS011;45711;50.108;13.712;2023-03-23T15:03:12;7.18;;;2.70;;
59830;SDS011;45711;50.108;13.712;2023-03-23T15:12:32;4.20;;;2.20;;
59830;SDS011;45711;50.108;13.712;2023-03-23T15:15:37;5.70;;;1.65;;
59830;SDS011;45711;50.108;13.712;2023-03-23T15:18:14;6.40;;;1.77;;
59830;SDS011;45711;50.108;13.712;2023-03-23T15:21:19;6.18;;;1.35;;
59830;SDS011;45711;50.108;13.712;2023-03-23T15:23:47;6.67;;;1.73;;
59830;SDS011;45711;50.108;13.712;2023-03-23T15:26:25;4.05;;;1.50;;
59830;SDS011;45711;50.108;13.712;2023-03-23T15:29:00;8.15;;;1.48;;
59830;SDS011;45711;50.108;13.712;2023-03-23T15:31:33;5.47;;;1.48;;
59830;SDS011;45711;50.108;13.712;2023-03-23T15:34:11;6.43;;;1.75;;
59830;SDS011;45711;50.108;13.712;2023-03-23T15:36:44;5.75;;;1.77;;
59830;SDS011;45711;50.108;13.712;2023-03-23T15:39:12;4.35;;;1.77;;
59830;SDS011;45711;50.108;13.712;2023-03-23T15:41:46;9.77;;;1.90;;
59830;SDS011;45711;50.108;13.712;2023-03-23T15:44:20;5.53;;;1.80;;
59830;SDS011;45711;50.108;13.712;2023-03-23T15:49:15;3.28;;;1.90;;
59830;SDS011;45711;50.108;13.712;2023-03-23T15:51:43;1.55;;;1.27;;
59830;SDS011;45711;50.108;13.712;2023-03-23T15:54:12;5.60;;;1.80;;
59830;SDS011;45711;50.108;13.712;2023-03-23T15:56:47;3.47;;;2.03;;
59830;SDS011;45711;50.108;13.712;2023-03-23T15:59:19;4.70;;;1.63;;
59830;SDS011;45711;50.108;13.712;2023-03-23T16:01:52;1.92;;;1.70;;
59830;SDS011;45711;50.108;13.712;2023-03-23T16:04:49;5.70;;;2.10;;
59830;SDS011;45711;50.108;13.712;2023-03-23T16:08:21;5.07;;;2.88;;
59830;SDS011;45711;50.108;13.712;2023-03-23T16:10:35;2.10;;;1.63;;
59830;SDS011;45711;50.108;13.712;2023-03-23T17:56:04;4.43;;;2.25;;
59830;SDS011;45711;50.108;13.712;2023-03-23T17:58:57;5.47;;;2.40;;
59830;SDS011;45711;50.108;13.712;2023-03-23T18:04:30;2.75;;;2.33;;
59830;SDS011;45711;50.108;13.712;2023-03-23T18:05:36;8.73;;;2.55;;
59830;SDS011;45711;50.108;13.712;2023-03-23T18:11:52;4.18;;;1.70;;
59830;SDS011;45711;50.108;13.712;2023-03-23T18:14:46;2.97;;;2.15;;
59830;SDS011;45711;50.108;13.712;2023-03-23T18:18:55;4.63;;;2.25;;
